Time;durP1;ratioP1;P1;durP2;ratioP2;P2;SDS_P1;SDS_P2;PMS_P1;PMS_P2;Temp;Humidity;BMP_temperature;BMP_pressure;BME280_temperature;BME280_humidity;BME280_pressure;Samples;Min_cycle;Max_cycle;Signal;HPM_P1;HPM_P2
2024/02/20 00:01:00;;;;;;;1.90;1.40;;;;;;;-2.02;100.00;101735.69;106135;1268;60905;-56
2024/02/20 00:03:28;;;;;;;3.50;1.30;;;;;;;-2.04;100.00;101739.84;106104;1256;61363;-56
2024/02/20 00:05:55;;;;;;;2.30;1.20;;;;;;;-2.06;100.00;101732.75;106088;1259;72801;-56
2024/02/20 00:08:23;;;;;;;3.10;1.10;;;;;;;-2.08;100.00;101726.53;106321;1259;67575;-56
2024/02/20 00:10:50;;;;;;;4.70;1.60;;;;;;;-2.08;100.00;101725.09;105981;1256;70539;-57
2024/02/20 00:13:18;;;;;;;1.90;1.10;;;;;;;-2.10;100.00;101722.41;106005;1259;61797;-56
2024/02/20 00:15:47;;;;;;;1.60;1.00;;;;;;;-2.10;100.00;101721.17;106083;1259;61456;-57
2024/02/20 00:18:15;;;;;;;5.00;1.20;;;;;;;-2.11;100.00;101720.97;106012;1260;73849;-56
2024/02/20 00:20:44;;;;;;;2.50;0.90;;;;;;;-2.08;100.00;101717.70;106348;1256;66004;-57
2024/02/20 00:23:13;;;;;;;1.60;0.90;;;;;;;-2.08;100.00;101710.17;106045;1256;71267;-57
2024/02/20 00:25:42;;;;;;;3.60;1.20;;;;;;;-2.05;100.00;101711.49;107063;1258;60283;-57
2024/02/20 00:28:10;;;;;;;1.80;0.80;;;;;;;-2.03;100.00;101708.56;106195;1258;60453;-57
2024/02/20 00:30:38;;;;;;;1.40;0.90;;;;;;;-2.00;100.00;101706.20;106359;1257;71868;-57
2024/02/20 00:33:05;;;;;;;2.00;1.10;;;;;;;-2.00;100.00;101707.45;105966;1258;66946;-57
2024/02/20 00:35:33;;;;;;;3.10;0.80;;;;;;;-1.98;100.00;101704.50;106141;1258;72182;-57
2024/02/20 00:38:01;;;;;;;1.50;0.90;;;;;;;-1.98;100.00;101700.66;107693;1258;60563;-57
2024/02/20 00:40:28;;;;;;;1.70;0.80;;;;;;;-1.98;100.00;101693.98;106059;1258;60598;-56
2024/02/20 00:42:55;;;;;;;2.50;1.10;;;;;;;-1.98;100.00;101691.86;106021;1259;73870;-56
2024/02/20 00:45:23;;;;;;;2.60;1.00;;;;;;;-1.99;100.00;101691.11;106370;1257;65405;-56
2024/02/20 00:47:50;;;;;;;1.50;1.10;;;;;;;-2.01;100.00;101688.05;105981;1256;75472;-56
2024/02/20 00:50:18;;;;;;;1.80;1.00;;;;;;;-2.03;100.00;101688.33;106063;1257;60819;-56
2024/02/20 00:52:45;;;;;;;1.40;0.90;;;;;;;-2.06;100.00;101682.27;106148;1253;60601;-57
2024/02/20 00:55:13;;;;;;;1.70;0.90;;;;;;;-2.09;100.00;101678.10;106083;1259;73922;-57
2024/02/20 00:57:42;;;;;;;3.00;0.80;;;;;;;-2.12;100.00;101677.64;108862;1256;66902;-58
2024/02/20 01:00:13;;;;;;;1.50;0.80;;;;;;;-2.15;100.00;101672.81;106726;1256;70344;-57
2024/02/20 01:02:41;;;;;;;1.50;1.00;;;;;;;-2.17;100.00;101666.40;106129;1256;60575;-57
2024/02/20 01:05:09;;;;;;;2.30;1.10;;;;;;;-2.21;100.00;101661.87;106095;1258;60756;-57
2024/02/20 01:07:38;;;;;;;2.90;2.00;;;;;;;-2.23;100.00;101656.70;106061;1260;75672;-57
2024/02/20 01:10:05;;;;;;;2.00;1.00;;;;;;;-2.26;100.00;101656.95;106061;1255;67760;-57
2024/02/20 01:12:33;;;;;;;1.50;0.80;;;;;;;-2.28;100.00;101655.30;106079;1256;72726;-57
2024/02/20 01:15:00;;;;;;;1.60;1.10;;;;;;;-2.29;100.00;101653.49;106089;1253;60927;-57
2024/02/20 01:17:28;;;;;;;1.60;0.90;;;;;;;-2.30;100.00;101647.15;106064;1258;60503;-57
2024/02/20 01:19:55;;;;;;;1.70;0.80;;;;;;;-2.30;100.00;101647.33;106024;1258;74109;-57
2024/02/20 01:22:22;;;;;;;1.60;0.70;;;;;;;-2.28;100.00;101643.88;106067;1253;67521;-57
2024/02/20 01:24:50;;;;;;;1.70;0.70;;;;;;;-2.25;100.00;101641.13;108948;1256;73551;-58
2024/02/20 01:27:17;;;;;;;1.60;0.80;;;;;;;-2.24;100.00;101638.03;108933;1253;59520;-58
2024/02/20 01:29:45;;;;;;;2.20;0.90;;;;;;;-2.22;100.00;101639.34;106897;1258;60530;-57
2024/02/20 01:32:13;;;;;;;1.20;0.80;;;;;;;-2.20;100.00;101639.37;106002;1260;72076;-57
2024/02/20 01:34:40;;;;;;;1.70;1.00;;;;;;;-2.21;100.00;101637.94;107358;1256;67304;-57
2024/02/20 01:37:08;;;;;;;2.50;0.70;;;;;;;-2.22;100.00;101636.52;106010;1253;72798;-56
2024/02/20 01:39:35;;;;;;;3.80;0.80;;;;;;;-2.22;100.00;101633.70;105997;1262;60563;-57
2024/02/20 01:42:03;;;;;;;1.40;0.70;;;;;;;-2.23;100.00;101632.27;106059;1259;60597;-57
2024/02/20 01:44:31;;;;;;;2.10;0.80;;;;;;;-2.24;100.00;101629.08;106017;1258;74049;-58
2024/02/20 01:47:00;;;;;;;1.10;0.70;;;;;;;-2.25;100.00;101625.31;106076;1254;65782;-57
2024/02/20 01:49:27;;;;;;;1.80;0.80;;;;;;;-2.27;100.00;101618.21;105877;1259;71473;-58
2024/02/20 01:51:54;;;;;;;4.50;1.20;;;;;;;-2.29;100.00;101615.17;105846;1263;60448;-58
2024/02/20 01:54:22;;;;;;;1.80;1.00;;;;;;;-2.31;100.00;101614.23;108187;1256;59301;-58
2024/02/20 01:56:49;;;;;;;1.30;0.80;;;;;;;-2.32;100.00;101615.44;105939;1254;72046;-58
2024/02/20 01:59:16;;;;;;;1.20;0.70;;;;;;;-2.33;100.00;101617.00;106001;1258;68249;-58
2024/02/20 02:01:44;;;;;;;1.60;1.00;;;;;;;-2.35;100.00;101611.83;106069;1253;72799;-58
2024/02/20 02:04:11;;;;;;;2.60;1.00;;;;;;;-2.36;100.00;101606.52;106132;1258;60726;-56
2024/02/20 02:06:39;;;;;;;2.70;1.00;;;;;;;-2.36;100.00;101602.98;105999;1258;60420;-56
2024/02/20 02:09:07;;;;;;;1.30;0.70;;;;;;;-2.36;100.00;101603.89;106176;1258;72625;-57
2024/02/20 02:11:39;;;;;;;3.10;0.80;;;;;;;-2.34;100.00;101603.96;106054;1258;67127;-57
2024/02/20 02:14:07;;;;;;;1.90;0.80;;;;;;;-2.30;100.00;101606.70;108014;1258;71602;-56
2024/02/20 02:16:34;;;;;;;3.90;1.10;;;;;;;-2.27;100.00;101607.66;106035;1254;60902;-56
2024/02/20 02:19:02;;;;;;;1.10;0.80;;;;;;;-2.24;100.00;101614.29;105952;1260;60387;-56
2024/02/20 02:21:31;;;;;;;1.40;0.90;;;;;;;-2.22;100.00;101615.06;106991;1258;73384;-56
2024/02/20 02:23:58;;;;;;;2.30;0.90;;;;;;;-2.21;100.00;101612.45;106270;1258;67513;-56
2024/02/20 02:26:25;;;;;;;1.40;0.90;;;;;;;-2.19;100.00;101610.20;106040;1258;72701;-56
2024/02/20 02:28:53;;;;;;;1.80;1.20;;;;;;;-2.19;100.00;101603.90;105982;1257;61344;-56
2024/02/20 02:31:20;;;;;;;3.40;1.60;;;;;;;-2.18;100.00;101602.67;106077;1258;60477;-56
2024/02/20 02:33:48;;;;;;;1.70;1.00;;;;;;;-2.20;100.00;101595.22;106208;1253;72870;-56
2024/02/20 02:36:15;;;;;;;1.80;1.10;;;;;;;-2.22;100.00;101593.45;106058;1253;67006;-56
2024/02/20 02:38:43;;;;;;;1.10;0.80;;;;;;;-2.23;100.00;101582.48;105995;1259;71831;-57
2024/02/20 02:41:12;;;;;;;1.90;1.10;;;;;;;-2.25;100.00;101575.90;106016;1256;60512;-57
2024/02/20 02:43:40;;;;;;;2.40;1.10;;;;;;;-2.27;100.00;101572.49;106214;1258;60435;-55
2024/02/20 02:46:13;;;;;;;2.20;1.30;;;;;;;-2.29;100.00;101569.80;106372;1253;72968;-56
2024/02/20 02:48:43;;;;;;;2.70;0.90;;;;;;;-2.30;100.00;101569.26;106122;1256;65755;-56
2024/02/20 02:51:10;;;;;;;2.00;1.10;;;;;;;-2.32;100.00;101566.74;105937;1260;70805;-56
2024/02/20 02:53:39;;;;;;;1.80;1.00;;;;;;;-2.32;100.00;101563.23;106021;1254;60680;-56
2024/02/20 02:56:09;;;;;;;2.60;1.10;;;;;;;-2.32;100.00;101562.86;106407;1260;59453;-56
2024/02/20 02:58:37;;;;;;;1.70;0.90;;;;;;;-2.31;100.00;101559.20;106745;1258;72535;-56
2024/02/20 03:01:05;;;;;;;3.40;1.10;;;;;;;-2.27;100.00;101559.14;106271;1269;65645;-56
2024/02/20 03:03:32;;;;;;;3.00;1.00;;;;;;;-2.23;100.00;101560.34;106706;1256;71467;-56
2024/02/20 03:06:08;;;;;;;2.20;1.00;;;;;;;-2.19;100.00;101558.69;106008;1254;61352;-56
2024/02/20 03:08:40;;;;;;;3.20;1.30;;;;;;;-2.14;100.00;101562.39;106365;1259;60569;-57
2024/02/20 03:11:07;;;;;;;4.20;0.90;;;;;;;-2.10;100.00;101562.51;105987;1260;74777;-56
2024/02/20 03:13:35;;;;;;;1.90;1.20;;;;;;;-2.07;100.00;101562.76;105990;1259;66856;-57
2024/02/20 03:16:05;;;;;;;1.70;0.90;;;;;;;-2.05;100.00;101572.15;105973;1255;72477;-56
2024/02/20 03:18:42;;;;;;;1.80;1.00;;;;;;;-2.04;100.00;101574.30;106089;1259;60372;-57
2024/02/20 03:21:10;;;;;;;1.70;1.10;;;;;;;-2.03;100.00;101573.27;106493;1260;59255;-57
2024/02/20 03:23:37;;;;;;;2.60;0.90;;;;;;;-2.03;100.00;101572.05;106122;1259;72913;-57
2024/02/20 03:26:04;;;;;;;1.90;1.20;;;;;;;-2.02;100.00;101576.64;106066;1255;65738;-57
2024/02/20 03:28:32;;;;;;;1.70;1.00;;;;;;;-2.01;100.00;101576.50;105988;1267;72692;-57
2024/02/20 03:31:00;;;;;;;1.80;0.90;;;;;;;-2.00;100.00;101578.12;107401;1260;60504;-57
2024/02/20 03:33:30;;;;;;;1.80;1.00;;;;;;;-1.98;100.00;101583.48;106192;1254;60404;-57
2024/02/20 03:35:58;;;;;;;1.50;0.90;;;;;;;-1.96;100.00;101581.77;106290;1258;74535;-57
2024/02/20 03:38:25;;;;;;;1.70;0.80;;;;;;;-1.93;100.00;101577.80;106026;1258;66240;-57
2024/02/20 03:40:53;;;;;;;1.30;0.80;;;;;;;-1.89;100.00;101577.23;105991;1268;73522;-57
2024/02/20 03:43:20;;;;;;;1.90;0.80;;;;;;;-1.85;100.00;101582.27;105988;1259;60268;-58
2024/02/20 03:45:48;;;;;;;2.10;0.90;;;;;;;-1.82;100.00;101584.51;106051;1259;60479;-57
2024/02/20 03:48:15;;;;;;;1.50;0.90;;;;;;;-1.80;100.00;101580.88;105985;1259;73916;-58
2024/02/20 03:50:43;;;;;;;1.10;0.80;;;;;;;-1.79;100.00;101571.92;105989;1254;65500;-56
2024/02/20 03:53:10;;;;;;;1.40;0.80;;;;;;;-1.77;100.00;101576.36;106019;1259;71377;-56
2024/02/20 03:55:37;;;;;;;1.20;0.70;;;;;;;-1.76;100.00;101572.89;106046;1256;60554;-56
2024/02/20 03:58:05;;;;;;;1.70;0.90;;;;;;;-1.76;100.00;101567.44;106278;1259;60221;-56
2024/02/20 04:00:32;;;;;;;1.30;0.80;;;;;;;-1.76;100.00;101566.19;105999;1256;71963;-56
2024/02/20 04:03:00;;;;;;;4.00;0.90;;;;;;;-1.77;100.00;101558.96;108952;1253;67589;-56
2024/02/20 04:05:28;;;;;;;1.20;0.90;;;;;;;-1.77;100.00;101557.01;108940;1253;71706;-57
2024/02/20 04:07:55;;;;;;;1.00;0.70;;;;;;;-1.78;100.00;101550.65;108935;1256;58876;-57
2024/02/20 04:10:22;;;;;;;2.90;0.80;;;;;;;-1.76;100.00;101557.73;109155;1253;59454;-56
2024/02/20 04:12:50;;;;;;;1.40;0.70;;;;;;;-1.75;100.00;101554.09;108969;1254;72589;-56
2024/02/20 04:15:17;;;;;;;1.40;0.60;;;;;;;-1.72;100.00;101554.35;108925;1259;65530;-56
2024/02/20 04:17:44;;;;;;;3.80;0.70;;;;;;;-1.69;100.00;101552.16;109041;1257;71431;-56
2024/02/20 04:20:12;;;;;;;2.20;0.90;;;;;;;-1.65;100.00;101553.86;108915;1256;60854;-57
2024/02/20 04:22:40;;;;;;;0.80;0.70;;;;;;;-1.60;100.00;101550.30;108845;1259;58293;-56
2024/02/20 04:25:07;;;;;;;2.30;0.80;;;;;;;-1.58;100.00;101549.16;109019;1252;72853;-56
2024/02/20 04:27:36;;;;;;;1.10;0.70;;;;;;;-1.55;100.00;101555.41;108796;1253;66832;-56
2024/02/20 04:30:06;;;;;;;1.30;0.70;;;;;;;-1.52;100.00;101557.05;106569;1269;72811;-56
2024/02/20 04:32:34;;;;;;;1.10;1.00;;;;;;;-1.52;100.00;101553.02;108945;1258;58222;-57
2024/02/20 04:35:01;;;;;;;1.00;0.60;;;;;;;-1.51;100.00;101550.39;107543;1258;59288;-55
2024/02/20 04:37:28;;;;;;;1.40;0.80;;;;;;;-1.52;100.00;101552.13;106074;1268;73884;-56
2024/02/20 04:39:56;;;;;;;3.30;0.70;;;;;;;-1.52;100.00;101556.86;106020;1258;65551;-57
2024/02/20 04:42:23;;;;;;;1.40;0.80;;;;;;;-1.53;100.00;101555.27;106006;1269;72741;-56
2024/02/20 04:44:51;;;;;;;1.20;0.80;;;;;;;-1.53;100.00;101555.98;106093;1259;62292;-56
2024/02/20 04:47:18;;;;;;;1.30;0.80;;;;;;;-1.53;100.00;101554.20;106056;1258;60618;-57
2024/02/20 04:49:50;;;;;;;2.00;1.00;;;;;;;-1.52;100.00;101559.34;105981;1259;73905;-57
2024/02/20 04:52:18;;;;;;;1.80;0.90;;;;;;;-1.50;100.00;101559.03;106204;1267;65750;-57
2024/02/20 04:54:45;;;;;;;1.30;1.00;;;;;;;-1.48;100.00;101564.57;105990;1259;72653;-57
2024/02/20 04:57:13;;;;;;;1.90;1.10;;;;;;;-1.45;100.00;101563.42;105977;1270;60914;-57
2024/02/20 04:59:41;;;;;;;1.80;0.90;;;;;;;-1.42;100.00;101560.34;105973;1256;60452;-57
2024/02/20 05:02:13;;;;;;;3.60;0.90;;;;;;;-1.40;100.00;101564.82;106194;1259;74647;-57
2024/02/20 05:04:41;;;;;;;1.40;0.90;;;;;;;-1.38;100.00;101564.34;106674;1258;67197;-57
2024/02/20 05:07:09;;;;;;;1.80;0.80;;;;;;;-1.36;100.00;101564.74;106334;1259;72366;-56
2024/02/20 05:09:37;;;;;;;1.20;0.80;;;;;;;-1.36;100.00;101563.86;106222;1258;60545;-57
2024/02/20 05:12:05;;;;;;;0.90;0.60;;;;;;;-1.36;100.00;101558.05;105894;1259;61429;-57
2024/02/20 05:14:32;;;;;;;1.80;0.70;;;;;;;-1.37;100.00;101559.42;106278;1258;72677;-57
2024/02/20 05:16:59;;;;;;;2.50;0.90;;;;;;;-1.39;100.00;101558.31;106054;1259;65913;-57
2024/02/20 05:19:26;;;;;;;1.60;0.80;;;;;;;-1.41;100.00;101556.31;106017;1260;71611;-57
2024/02/20 05:21:54;;;;;;;2.20;0.70;;;;;;;-1.43;100.00;101554.48;105934;1269;60388;-56
2024/02/20 05:24:22;;;;;;;1.70;0.70;;;;;;;-1.45;100.00;101557.09;106008;1260;60387;-56
2024/02/20 05:26:49;;;;;;;1.60;0.80;;;;;;;-1.46;100.00;101557.76;106222;1258;76204;-57
2024/02/20 05:29:17;;;;;;;1.10;0.60;;;;;;;-1.47;100.00;101558.25;106062;1260;65730;-57
2024/02/20 05:31:44;;;;;;;0.70;0.50;;;;;;;-1.47;100.00;101559.49;106131;1262;73132;-58
2024/02/20 05:34:11;;;;;;;1.10;0.60;;;;;;;-1.44;100.00;101558.14;106197;1268;61780;-58
2024/02/20 05:36:39;;;;;;;1.30;0.60;;;;;;;-1.41;100.00;101566.36;106001;1267;60532;-57
2024/02/20 05:39:07;;;;;;;1.00;0.80;;;;;;;-1.37;100.00;101567.70;105969;1260;71558;-57
2024/02/20 05:41:35;;;;;;;1.50;0.70;;;;;;;-1.34;100.00;101567.98;106106;1254;67022;-57
2024/02/20 05:44:02;;;;;;;1.70;0.70;;;;;;;-1.30;100.00;101571.25;106110;1259;72782;-57
2024/02/20 05:46:32;;;;;;;1.80;0.70;;;;;;;-1.27;100.00;101573.27;106158;1271;60476;-56
2024/02/20 05:48:59;;;;;;;1.40;0.60;;;;;;;-1.25;100.00;101571.21;106375;1261;60481;-57
2024/02/20 05:51:27;;;;;;;1.20;0.70;;;;;;;-1.24;100.00;101575.67;106719;1259;74369;-57
2024/02/20 05:53:55;;;;;;;1.00;0.70;;;;;;;-1.23;100.00;101577.27;106065;1259;68395;-57
2024/02/20 05:56:23;;;;;;;1.20;0.70;;;;;;;-1.22;100.00;101581.89;105978;1268;73134;-57
2024/02/20 05:58:51;;;;;;;1.10;0.80;;;;;;;-1.22;100.00;101576.60;106190;1260;60930;-57
2024/02/20 06:01:18;;;;;;;1.40;0.80;;;;;;;-1.22;100.00;101571.85;105958;1263;60699;-57
2024/02/20 06:03:46;;;;;;;1.10;0.70;;;;;;;-1.22;100.00;101572.90;105945;1255;74666;-57
2024/02/20 06:06:14;;;;;;;1.10;0.80;;;;;;;-1.22;100.00;101568.33;106491;1261;66830;-57
2024/02/20 06:08:42;;;;;;;1.50;0.70;;;;;;;-1.21;100.00;101571.52;106163;1257;72595;-58
2024/02/20 06:11:13;;;;;;;1.00;0.70;;;;;;;-1.22;100.00;101572.02;105997;1267;61421;-57
2024/02/20 06:13:42;;;;;;;1.20;0.70;;;;;;;-1.22;100.00;101572.54;106036;1258;60372;-57
2024/02/20 06:16:09;;;;;;;1.40;0.60;;;;;;;-1.22;100.00;101570.80;106618;1257;74056;-57
2024/02/20 06:18:40;;;;;;;1.20;0.50;;;;;;;-1.20;100.00;101571.53;106002;1262;65814;-57
2024/02/20 06:21:11;;;;;;;0.80;0.50;;;;;;;-1.19;100.00;101570.85;106007;1266;73265;-57
2024/02/20 06:23:38;;;;;;;1.00;0.60;;;;;;;-1.18;100.00;101571.42;107484;1259;60403;-57
2024/02/20 06:26:06;;;;;;;0.80;0.60;;;;;;;-1.15;100.00;101568.70;105975;1269;61356;-57
2024/02/20 06:28:37;;;;;;;2.70;0.60;;;;;;;-1.13;100.00;101566.64;106117;1260;74185;-56
2024/02/20 06:31:06;;;;;;;1.30;0.70;;;;;;;-1.12;100.00;101567.73;105972;1260;66665;-57
2024/02/20 06:33:35;;;;;;;0.70;0.60;;;;;;;-1.11;100.00;101572.33;106892;1257;71754;-57
2024/02/20 06:36:03;;;;;;;0.80;0.60;;;;;;;-1.09;100.00;101571.30;107056;1254;60096;-57
2024/02/20 06:38:34;;;;;;;1.30;0.80;;;;;;;-1.09;100.00;101571.31;106667;1258;61439;-56
2024/02/20 06:41:02;;;;;;;1.00;0.70;;;;;;;-1.08;100.00;101568.67;105975;1256;74113;-57
2024/02/20 06:43:29;;;;;;;1.40;0.80;;;;;;;-1.07;100.00;101566.08;106255;1254;66092;-56
2024/02/20 06:45:57;;;;;;;1.20;0.70;;;;;;;-1.07;100.00;101568.21;105967;1260;73206;-56
2024/02/20 06:48:24;;;;;;;1.30;0.60;;;;;;;-1.05;100.00;101569.14;109080;1255;58534;-56
2024/02/20 06:50:52;;;;;;;1.30;0.60;;;;;;;-1.04;100.00;101568.80;108473;1260;60229;-57
2024/02/20 06:53:20;;;;;;;1.70;0.60;;;;;;;-1.04;100.00;101568.99;105949;1261;73997;-57
2024/02/20 06:55:47;;;;;;;1.00;0.70;;;;;;;-1.03;100.00;101569.71;106090;1259;67295;-56
2024/02/20 06:58:15;;;;;;;1.50;0.60;;;;;;;-1.04;100.00;101565.47;109000;1254;73169;-57
2024/02/20 07:00:42;;;;;;;1.70;0.70;;;;;;;-1.07;100.00;101563.10;108989;1254;61219;-57
2024/02/20 07:03:10;;;;;;;1.50;1.00;;;;;;;-1.08;100.00;101560.40;106590;1260;300858;-56
2024/02/20 07:07:51;;;;;;;1.00;0.70;;;;;;;-1.09;100.00;101630.35;102828;1292;601198;-54
2024/02/20 07:10:19;;;;;;;1.20;0.80;;;;;;;-1.11;100.00;101646.32;105336;1271;59318;-55
2024/02/20 07:12:47;;;;;;;1.00;0.60;;;;;;;-1.10;100.00;101632.42;108287;1266;60133;-55
2024/02/20 07:15:14;;;;;;;0.90;0.60;;;;;;;-1.07;100.00;101621.05;105592;1271;72411;-55
2024/02/20 07:17:42;;;;;;;0.90;0.60;;;;;;;-1.04;100.00;101612.00;105267;1284;66941;-55
2024/02/20 07:20:11;;;;;;;1.00;0.70;;;;;;;-1.01;100.00;101604.14;105315;1272;72812;-56
2024/02/20 07:22:39;;;;;;;0.80;0.50;;;;;;;-0.97;100.00;101604.60;106248;1268;177322;-55
2024/02/20 07:25:07;;;;;;;1.40;0.60;;;;;;;-0.95;100.00;101599.75;105470;1268;59228;-56
2024/02/20 07:27:34;;;;;;;1.20;0.80;;;;;;;-0.93;100.00;101602.59;108314;1266;71458;-56
2024/02/20 07:30:03;;;;;;;1.00;0.80;;;;;;;-0.91;100.00;101599.64;105819;1268;65657;-55
2024/02/20 07:32:30;;;;;;;1.10;0.60;;;;;;;-0.90;100.00;101599.33;105306;1268;72767;-55
2024/02/20 07:34:58;;;;;;;0.90;0.60;;;;;;;-0.87;100.00;101596.43;105382;1269;59768;-55
2024/02/20 07:37:26;;;;;;;0.70;0.60;;;;;;;-0.85;100.00;101598.95;105535;1268;60931;-56
2024/02/20 07:39:53;;;;;;;0.80;0.60;;;;;;;-0.83;100.00;101592.83;105924;1268;71940;-56
2024/02/20 07:42:21;;;;;;;2.60;0.60;;;;;;;-0.82;100.00;101586.88;106322;1263;66474;-56
2024/02/20 07:44:48;;;;;;;6.70;1.10;;;;;;;-0.81;100.00;101591.30;105305;1268;73358;-55
2024/02/20 07:47:15;;;;;;;3.50;1.00;;;;;;;-0.81;100.00;101588.85;105462;1267;60101;-53
2024/02/20 07:49:42;;;;;;;2.40;1.10;;;;;;;-0.81;100.00;101582.33;105986;1272;59593;-55
2024/02/20 07:52:10;;;;;;;1.80;0.70;;;;;;;-0.83;100.00;101581.20;105938;1260;73610;-54
2024/02/20 07:54:38;;;;;;;1.20;0.60;;;;;;;-0.84;100.00;101574.46;106468;1260;65583;-55
2024/02/20 07:57:05;;;;;;;2.00;0.70;;;;;;;-0.84;100.00;101573.58;106023;1259;72734;-54
2024/02/20 07:59:32;;;;;;;0.70;0.50;;;;;;;-0.86;100.00;101573.38;105959;1262;59721;-54
2024/02/20 08:02:02;;;;;;;1.10;0.60;;;;;;;-0.86;100.00;101576.90;105982;1268;60012;-54
2024/02/20 08:04:30;;;;;;;2.00;0.50;;;;;;;-0.86;100.00;101572.67;106324;1260;72146;-56
2024/02/20 08:06:57;;;;;;;0.80;0.60;;;;;;;-0.85;100.00;101571.11;106053;1260;66992;-54
2024/02/20 08:09:25;;;;;;;1.40;0.70;;;;;;;-0.85;100.00;101572.86;106475;1262;71525;-55
2024/02/20 08:11:52;;;;;;;0.90;0.60;;;;;;;-0.84;100.00;101575.90;105928;1259;60827;-56
2024/02/20 08:14:19;;;;;;;2.20;0.70;;;;;;;-0.81;100.00;101571.21;105834;1262;60967;-55
2024/02/20 08:16:50;;;;;;;1.10;0.70;;;;;;;-0.78;100.00;101571.66;105902;1257;73540;-54
2024/02/20 08:19:18;;;;;;;0.90;0.60;;;;;;;-0.72;100.00;101574.59;105926;1262;65758;-54
2024/02/20 08:21:46;;;;;;;2.70;0.70;;;;;;;-0.69;100.00;101573.10;106047;1258;70707;-54
2024/02/20 08:24:14;;;;;;;1.90;0.70;;;;;;;-0.66;100.00;101575.80;105963;1258;60280;-55
2024/02/20 08:26:42;;;;;;;0.90;0.60;;;;;;;-0.64;100.00;101567.23;105914;1262;60714;-54
2024/02/20 08:29:12;;;;;;;0.80;0.60;;;;;;;-0.63;100.00;101568.15;105875;1262;73173;-55
2024/02/20 08:31:42;;;;;;;1.10;0.50;;;;;;;-0.64;100.00;101568.83;106110;1260;65752;-54
2024/02/20 08:34:10;;;;;;;1.10;0.70;;;;;;;-0.65;100.00;101567.39;106062;1262;71804;-54
2024/02/20 08:36:39;;;;;;;1.10;0.70;;;;;;;-0.66;100.00;101560.48;105927;1271;59721;-55
2024/02/20 08:39:07;;;;;;;0.60;0.50;;;;;;;-0.67;100.00;101560.63;107044;1257;60734;-56
2024/02/20 08:41:35;;;;;;;1.20;0.70;;;;;;;-0.69;100.00;101558.11;106105;1258;71872;-55
2024/02/20 08:44:03;;;;;;;1.20;0.70;;;;;;;-0.73;100.00;101560.30;106992;1261;66042;-54
2024/02/20 08:46:31;;;;;;;9.00;4.10;;;;;;;-0.75;100.00;101559.02;105725;1267;72709;-55
2024/02/20 08:48:59;;;;;;;29.30;18.10;;;;;;;-0.76;100.00;101558.82;106090;1259;59754;-54
2024/02/20 08:51:27;;;;;;;41.70;27.80;;;;;;;-0.76;100.00;101555.64;105840;1262;60668;-54
2024/02/20 08:53:54;;;;;;;13.10;9.70;;;;;;;-0.74;100.00;101552.87;105933;1261;75700;-54
2024/02/20 08:56:22;;;;;;;10.10;8.90;;;;;;;-0.73;100.00;101550.77;105854;1258;66316;-54
2024/02/20 08:58:51;;;;;;;12.80;10.90;;;;;;;-0.72;100.00;101552.74;105891;1256;71559;-54
2024/02/20 09:01:19;;;;;;;4.00;3.60;;;;;;;-0.71;100.00;101549.62;108031;1261;59713;-53
2024/02/20 09:03:47;;;;;;;1.70;1.60;;;;;;;-0.68;100.00;101552.67;105991;1262;60087;-54
2024/02/20 09:06:14;;;;;;;2.90;1.60;;;;;;;-0.66;100.00;101552.36;105762;1262;73020;-54
2024/02/20 09:08:41;;;;;;;1.80;1.60;;;;;;;-0.65;100.00;101552.74;105936;1262;65817;-54
2024/02/20 09:11:09;;;;;;;1.90;1.20;;;;;;;-0.65;100.00;101549.23;105938;1259;74978;-54
2024/02/20 09:13:38;;;;;;;2.00;1.20;;;;;;;-0.64;100.00;101545.02;105874;1262;59892;-54
2024/02/20 09:16:05;;;;;;;1.50;1.00;;;;;;;-0.63;100.00;101552.10;106022;1262;60773;-54
2024/02/20 09:18:36;;;;;;;3.70;1.00;;;;;;;-0.63;100.00;101553.88;105873;1261;71794;-55
2024/02/20 09:21:04;;;;;;;0.90;0.60;;;;;;;-0.63;100.00;101551.41;105798;1263;67155;-54
2024/02/20 09:23:36;;;;;;;1.60;0.80;;;;;;;-0.62;100.00;101553.19;105872;1262;71366;-54
2024/02/20 09:26:05;;;;;;;1.50;0.80;;;;;;;-0.62;100.00;101547.02;106215;1266;59659;-54
2024/02/20 09:28:33;;;;;;;0.90;0.60;;;;;;;-0.61;100.00;101545.46;105894;1260;60066;-55
2024/02/20 09:31:01;;;;;;;1.40;0.70;;;;;;;-0.61;100.00;101545.63;105918;1261;73110;-55
2024/02/20 09:33:29;;;;;;;1.40;0.60;;;;;;;-0.61;100.00;101540.35;105914;1268;66633;-54
2024/02/20 09:35:56;;;;;;;2.70;0.70;;;;;;;-0.60;100.00;101537.20;105914;1271;71497;-54
2024/02/20 09:38:24;;;;;;;1.10;0.70;;;;;;;-0.58;100.00;101533.36;105790;1271;59765;-55
2024/02/20 09:40:52;;;;;;;7.30;3.20;;;;;;;-0.54;100.00;101535.42;105954;1263;59503;-54
2024/02/20 09:43:19;;;;;;;59.70;31.20;;;;;;;-0.49;100.00;101531.30;106000;1256;73638;-54
2024/02/20 09:45:47;;;;;;;213.00;114.30;;;;;;;-0.45;100.00;101534.42;106157;1261;67135;-54
2024/02/20 09:48:15;;;;;;;93.10;48.60;;;;;;;-0.42;100.00;101530.59;105760;1265;71472;-56
2024/02/20 09:50:42;;;;;;;55.50;27.90;;;;;;;-0.40;100.00;101531.52;106854;1261;59848;-55
2024/02/20 09:53:11;;;;;;;24.30;10.00;;;;;;;-0.37;100.00;101532.81;105915;1260;60177;-55
2024/02/20 09:55:39;;;;;;;20.90;8.40;;;;;;;-0.36;100.00;101529.86;106222;1262;72145;-55
2024/02/20 09:58:07;;;;;;;24.70;9.40;;;;;;;-0.35;100.00;101526.01;108522;1263;65944;-56
2024/02/20 10:00:35;;;;;;;26.00;12.50;;;;;;;-0.36;100.00;101520.86;105856;1262;71532;-56
2024/02/20 10:03:03;;;;;;;5.80;3.20;;;;;;;-0.37;100.00;101520.66;108716;1256;63469;-56
2024/02/20 10:05:30;;;;;;;5.70;4.90;;;;;;;-0.38;100.00;101520.46;108718;1256;60079;-55
2024/02/20 10:07:59;;;;;;;2.20;1.60;;;;;;;-0.36;100.00;101518.02;106715;1263;71917;-55
2024/02/20 10:10:28;;;;;;;1.10;0.80;;;;;;;-0.34;100.00;101520.38;108704;1256;66988;-56
2024/02/20 10:13:02;;;;;;;4.00;0.70;;;;;;;-0.31;100.00;101521.48;108816;1257;72336;-56
2024/02/20 10:15:30;;;;;;;0.90;0.70;;;;;;;-0.30;100.00;101521.00;108793;1256;58284;-56
2024/02/20 10:18:01;;;;;;;2.70;0.50;;;;;;;-0.27;100.00;101523.01;106160;1262;60461;-56
2024/02/20 10:20:29;;;;;;;0.80;0.60;;;;;;;-0.25;100.00;101523.23;105938;1254;75069;-56
2024/02/20 10:23:07;;;;;;;0.90;0.60;;;;;;;-0.24;100.00;101521.32;108992;1255;66071;-57
2024/02/20 10:25:35;;;;;;;1.10;0.60;;;;;;;-0.23;100.00;101520.63;108746;1256;73211;-56
2024/02/20 10:28:08;;;;;;;0.80;0.50;;;;;;;-0.24;100.00;101512.30;108821;1257;58109;-56
2024/02/20 10:30:36;;;;;;;0.90;0.70;;;;;;;-0.27;100.00;101508.74;106060;1263;60860;-57
2024/02/20 10:33:04;;;;;;;1.10;0.60;;;;;;;-0.29;100.00;101503.56;108863;1256;73180;-57
2024/02/20 10:35:32;;;;;;;1.70;0.70;;;;;;;-0.30;100.00;101496.84;108839;1260;67445;-56
2024/02/20 10:38:01;;;;;;;1.00;0.60;;;;;;;-0.29;100.00;101495.79;108720;1256;72714;-56
2024/02/20 10:40:29;;;;;;;1.20;0.80;;;;;;;-0.28;100.00;101494.07;106823;1259;59555;-57
2024/02/20 10:42:57;;;;;;;1.80;0.70;;;;;;;-0.26;100.00;101493.58;106960;1260;59584;-57
2024/02/20 10:45:25;;;;;;;1.30;0.70;;;;;;;-0.24;100.00;101497.66;108758;1257;73309;-58
2024/02/20 10:47:55;;;;;;;2.70;0.70;;;;;;;-0.24;100.00;101498.02;108795;1256;66787;-57
2024/02/20 10:50:23;;;;;;;1.00;0.80;;;;;;;-0.26;100.00;101498.52;105951;1270;71492;-57
2024/02/20 10:52:55;;;;;;;1.00;0.90;;;;;;;-0.27;100.00;101497.61;106626;1262;59721;-56
2024/02/20 10:55:23;;;;;;;1.50;0.80;;;;;;;-0.26;100.00;101494.29;106110;1260;59686;-56
2024/02/20 10:58:01;;;;;;;0.90;0.70;;;;;;;-0.26;100.00;101498.69;106266;1263;72035;-57
2024/02/20 11:00:33;;;;;;;1.00;0.80;;;;;;;-0.25;100.00;101496.58;105895;1263;67415;-58
2024/02/20 11:03:04;;;;;;;1.30;0.70;;;;;;;-0.24;100.00;101493.61;105943;1261;72629;-59
2024/02/20 11:05:32;;;;;;;0.90;0.80;;;;;;;-0.22;100.00;101491.71;106001;1260;61180;-58
2024/02/20 11:08:05;;;;;;;4.30;1.00;;;;;;;-0.20;100.00;101490.55;105907;1271;59691;-58
2024/02/20 11:10:36;;;;;;;2.40;0.90;;;;;;;-0.18;100.00;101488.83;107493;1259;72180;-57
2024/02/20 11:13:14;;;;;;;2.10;0.90;;;;;;;-0.17;100.00;101486.36;106244;1257;66001;-57
2024/02/20 11:15:43;;;;;;;0.90;0.80;;;;;;;-0.18;100.00;101486.72;106598;1258;72753;-58